sensor_id;sensor_type;location;lat;lon;timestamp;pressure;altitude;pressure_sealevel;temperature;humidity
21956;BME280;11142;49.930;8.606;2023-11-19T00:00:34;99653.28;;;9.32;100.00
21956;BME280;11142;49.930;8.606;2023-11-19T00:03:02;99651.44;;;9.34;100.00
21956;BME280;11142;49.930;8.606;2023-11-19T00:05:31;99657.78;;;9.43;100.00
21956;BME280;11142;49.930;8.606;2023-11-19T00:07:59;99651.56;;;9.45;100.00
21956;BME280;11142;49.930;8.606;2023-11-19T00:10:29;99641.41;;;9.42;100.00
21956;BME280;11142;49.930;8.606;2023-11-19T00:12:57;99630.38;;;9.26;100.00
21956;BME280;11142;49.930;8.606;2023-11-19T00:15:27;99634.75;;;9.26;100.00
21956;BME280;11142;49.930;8.606;2023-11-19T00:17:55;99639.94;;;9.26;100.00
21956;BME280;11142;49.930;8.606;2023-11-19T00:20:29;99637.75;;;9.32;100.00
21956;BME280;11142;49.930;8.606;2023-11-19T00:22:58;99634.78;;;9.38;100.00
21956;BME280;11142;49.930;8.606;2023-11-19T00:25:28;99641.69;;;9.25;100.00
21956;BME280;11142;49.930;8.606;2023-11-19T00:27:58;99648.31;;;9.29;100.00
21956;BME280;11142;49.930;8.606;2023-11-19T00:30:28;99641.56;;;9.27;100.00
21956;BME280;11142;49.930;8.606;2023-11-19T00:32:58;99660.28;;;9.44;100.00
21956;BME280;11142;49.930;8.606;2023-11-19T00:35:27;99655.19;;;9.55;100.00
21956;BME280;11142;49.930;8.606;2023-11-19T00:37:55;99657.19;;;9.65;100.00
21956;BME280;11142;49.930;8.606;2023-11-19T00:40:23;99655.00;;;9.71;100.00
21956;BME280;11142;49.930;8.606;2023-11-19T00:42:51;99648.78;;;9.74;100.00
21956;BME280;11142;49.930;8.606;2023-11-19T00:45:23;99649.94;;;9.70;100.00
21956;BME280;11142;49.930;8.606;2023-11-19T00:47:56;99651.59;;;9.83;100.00
21956;BME280;11142;49.930;8.606;2023-11-19T00:50:26;99658.25;;;10.00;100.00
21956;BME280;11142;49.930;8.606;2023-11-19T00:52:55;99662.50;;;9.76;100.00
21956;BME280;11142;49.930;8.606;2023-11-19T00:55:23;99651.19;;;9.77;100.00
21956;BME280;11142;49.930;8.606;2023-11-19T00:57:51;99661.88;;;9.72;100.00
21956;BME280;11142;49.930;8.606;2023-11-19T01:00:20;99640.00;;;9.76;100.00
21956;BME280;11142;49.930;8.606;2023-11-19T01:02:51;99640.72;;;9.66;100.00
21956;BME280;11142;49.930;8.606;2023-11-19T01:05:21;99642.81;;;9.86;100.00
21956;BME280;11142;49.930;8.606;2023-11-19T01:07:50;99647.25;;;9.84;100.00
21956;BME280;11142;49.930;8.606;2023-11-19T01:10:22;99651.00;;;9.92;100.00
21956;BME280;11142;49.930;8.606;2023-11-19T01:12:51;99644.56;;;9.85;100.00
21956;BME280;11142;49.930;8.606;2023-11-19T01:15:21;99624.88;;;9.70;100.00
21956;BME280;11142;49.930;8.606;2023-11-19T01:17:50;99623.50;;;9.65;100.00
21956;BME280;11142;49.930;8.606;2023-11-19T01:20:21;99607.66;;;9.82;100.00
21956;BME280;11142;49.930;8.606;2023-11-19T01:22:51;99611.50;;;9.76;100.00
21956;BME280;11142;49.930;8.606;2023-11-19T01:25:19;99601.22;;;9.75;100.00
21956;BME280;11142;49.930;8.606;2023-11-19T01:27:47;99580.22;;;9.67;100.00
21956;BME280;11142;49.930;8.606;2023-11-19T01:30:17;99589.13;;;9.63;100.00
21956;BME280;11142;49.930;8.606;2023-11-19T01:32:48;99580.22;;;9.67;100.00
21956;BME280;11142;49.930;8.606;2023-11-19T01:35:17;99584.03;;;9.61;100.00
21956;BME280;11142;49.930;8.606;2023-11-19T01:37:46;99579.59;;;9.76;100.00
21956;BME280;11142;49.930;8.606;2023-11-19T01:40:14;99562.50;;;9.73;100.00
21956;BME280;11142;49.930;8.606;2023-11-19T01:42:43;99543.72;;;9.70;100.00
21956;BME280;11142;49.930;8.606;2023-11-19T01:45:22;99563.72;;;9.68;100.00
21956;BME280;11142;49.930;8.606;2023-11-19T01:47:52;99574.91;;;9.81;100.00
21956;BME280;11142;49.930;8.606;2023-11-19T01:50:21;99572.63;;;9.89;100.00
21956;BME280;11142;49.930;8.606;2023-11-19T01:52:53;99546.38;;;9.93;100.00
21956;BME280;11142;49.930;8.606;2023-11-19T01:55:25;99555.81;;;9.94;100.00
21956;BME280;11142;49.930;8.606;2023-11-19T01:57:57;99573.31;;;10.03;100.00
21956;BME280;11142;49.930;8.606;2023-11-19T02:00:28;99567.88;;;9.83;100.00
21956;BME280;11142;49.930;8.606;2023-11-19T02:02:56;99544.84;;;9.91;100.00
21956;BME280;11142;49.930;8.606;2023-11-19T02:05:25;99534.88;;;9.97;100.00
21956;BME280;11142;49.930;8.606;2023-11-19T02:07:54;99523.38;;;10.01;100.00
21956;BME280;11142;49.930;8.606;2023-11-19T02:10:23;99525.63;;;10.06;100.00
21956;BME280;11142;49.930;8.606;2023-11-19T02:12:52;99525.75;;;10.04;100.00
21956;BME280;11142;49.930;8.606;2023-11-19T02:15:32;99522.19;;;10.05;100.00
21956;BME280;11142;49.930;8.606;2023-11-19T02:18:20;99512.66;;;10.06;100.00
21956;BME280;11142;49.930;8.606;2023-11-19T02:20:51;99508.00;;;10.11;100.00
21956;BME280;11142;49.930;8.606;2023-11-19T02:23:23;99502.63;;;10.14;100.00
21956;BME280;11142;49.930;8.606;2023-11-19T02:26:00;99495.56;;;10.16;100.00
21956;BME280;11142;49.930;8.606;2023-11-19T02:28:31;99508.38;;;10.30;100.00
21956;BME280;11142;49.930;8.606;2023-11-19T02:31:00;99505.13;;;10.39;100.00
21956;BME280;11142;49.930;8.606;2023-11-19T02:33:30;99519.84;;;10.39;100.00
21956;BME280;11142;49.930;8.606;2023-11-19T02:35:59;99518.78;;;10.41;100.00
21956;BME280;11142;49.930;8.606;2023-11-19T02:38:28;99529.06;;;10.43;100.00
21956;BME280;11142;49.930;8.606;2023-11-19T02:40:57;99531.06;;;10.39;100.00
21956;BME280;11142;49.930;8.606;2023-11-19T02:43:26;99530.03;;;10.53;100.00
21956;BME280;11142;49.930;8.606;2023-11-19T02:45:57;99525.88;;;10.39;100.00
21956;BME280;11142;49.930;8.606;2023-11-19T02:48:26;99510.53;;;10.36;100.00
21956;BME280;11142;49.930;8.606;2023-11-19T02:50:54;99505.28;;;10.49;100.00
21956;BME280;11142;49.930;8.606;2023-11-19T02:53:21;99511.06;;;10.52;100.00
21956;BME280;11142;49.930;8.606;2023-11-19T02:55:50;99496.94;;;10.56;100.00
21956;BME280;11142;49.930;8.606;2023-11-19T02:58:18;99501.44;;;10.65;100.00
21956;BME280;11142;49.930;8.606;2023-11-19T03:00:51;99507.31;;;10.56;100.00
21956;BME280;11142;49.930;8.606;2023-11-19T03:03:27;99494.34;;;10.56;100.00
21956;BME280;11142;49.930;8.606;2023-11-19T03:06:05;99498.03;;;10.65;100.00
21956;BME280;11142;49.930;8.606;2023-11-19T03:08:35;99503.72;;;10.70;100.00
21956;BME280;11142;49.930;8.606;2023-11-19T03:11:04;99505.69;;;10.66;100.00
21956;BME280;11142;49.930;8.606;2023-11-19T03:13:33;99508.97;;;10.57;100.00
21956;BME280;11142;49.930;8.606;2023-11-19T03:16:01;99501.03;;;10.72;100.00
21956;BME280;11142;49.930;8.606;2023-11-19T03:18:34;99508.06;;;10.70;100.00
21956;BME280;11142;49.930;8.606;2023-11-19T03:21:02;99504.41;;;10.72;100.00
21956;BME280;11142;49.930;8.606;2023-11-19T03:23:30;99492.56;;;10.92;100.00
21956;BME280;11142;49.930;8.606;2023-11-19T03:25:58;99501.88;;;10.94;100.00
21956;BME280;11142;49.930;8.606;2023-11-19T03:28:30;99496.13;;;10.91;100.00
21956;BME280;11142;49.930;8.606;2023-11-19T03:30:58;99486.38;;;10.71;100.00
21956;BME280;11142;49.930;8.606;2023-11-19T03:33:27;99473.56;;;10.56;100.00
21956;BME280;11142;49.930;8.606;2023-11-19T03:35:57;99472.81;;;10.43;100.00
21956;BME280;11142;49.930;8.606;2023-11-19T03:38:26;99462.56;;;10.42;100.00
21956;BME280;11142;49.930;8.606;2023-11-19T03:40:54;99464.09;;;10.44;100.00
21956;BME280;11142;49.930;8.606;2023-11-19T03:43:22;99458.09;;;10.44;100.00
21956;BME280;11142;49.930;8.606;2023-11-19T03:45:50;99465.41;;;10.50;100.00
21956;BME280;11142;49.930;8.606;2023-11-19T03:48:18;99455.63;;;10.53;100.00
21956;BME280;11142;49.930;8.606;2023-11-19T03:50:46;99454.97;;;10.62;100.00
21956;BME280;11142;49.930;8.606;2023-11-19T03:53:16;99458.00;;;10.56;100.00
21956;BME280;11142;49.930;8.606;2023-11-19T03:55:45;99461.59;;;10.66;100.00
21956;BME280;11142;49.930;8.606;2023-11-19T03:58:13;99462.91;;;10.72;100.00
21956;BME280;11142;49.930;8.606;2023-11-19T04:00:41;99466.56;;;10.70;100.00
21956;BME280;11142;49.930;8.606;2023-11-19T04:03:12;99457.75;;;10.83;100.00
21956;BME280;11142;49.930;8.606;2023-11-19T04:05:40;99459.59;;;10.70;100.00
21956;BME280;11142;49.930;8.606;2023-11-19T04:08:09;99460.06;;;10.75;100.00
21956;BME280;11142;49.930;8.606;2023-11-19T04:10:39;99460.00;;;10.88;100.00
21956;BME280;11142;49.930;8.606;2023-11-19T04:13:07;99452.00;;;11.02;100.00
21956;BME280;11142;49.930;8.606;2023-11-19T04:15:35;99470.28;;;11.00;100.00
21956;BME280;11142;49.930;8.606;2023-11-19T04:18:04;99464.75;;;10.94;100.00
21956;BME280;11142;49.930;8.606;2023-11-19T04:20:32;99463.47;;;10.99;100.00
21956;BME280;11142;49.930;8.606;2023-11-19T04:23:00;99460.63;;;11.02;100.00
21956;BME280;11142;49.930;8.606;2023-11-19T04:25:28;99470.16;;;10.91;100.00
21956;BME280;11142;49.930;8.606;2023-11-19T04:27:57;99460.34;;;10.94;100.00
21956;BME280;11142;49.930;8.606;2023-11-19T04:30:25;99448.09;;;10.96;100.00
21956;BME280;11142;49.930;8.606;2023-11-19T04:32:53;99454.78;;;10.88;100.00
21956;BME280;11142;49.930;8.606;2023-11-19T04:35:21;99456.22;;;10.92;100.00
21956;BME280;11142;49.930;8.606;2023-11-19T04:37:49;99456.25;;;11.03;100.00
21956;BME280;11142;49.930;8.606;2023-11-19T04:40:17;99450.38;;;11.12;100.00
21956;BME280;11142;49.930;8.606;2023-11-19T04:42:46;99452.13;;;11.11;100.00
21956;BME280;11142;49.930;8.606;2023-11-19T04:45:17;99442.31;;;11.04;100.00
21956;BME280;11142;49.930;8.606;2023-11-19T04:47:45;99443.75;;;11.08;100.00
21956;BME280;11142;49.930;8.606;2023-11-19T04:50:13;99440.91;;;11.00;100.00
21956;BME280;11142;49.930;8.606;2023-11-19T04:52:41;99437.41;;;11.12;100.00
21956;BME280;11142;49.930;8.606;2023-11-19T04:55:12;99444.31;;;11.00;100.00
21956;BME280;11142;49.930;8.606;2023-11-19T04:57:41;99437.38;;;11.01;100.00
21956;BME280;11142;49.930;8.606;2023-11-19T05:00:10;99431.00;;;11.05;100.00
21956;BME280;11142;49.930;8.606;2023-11-19T05:02:45;99442.59;;;11.12;100.00
21956;BME280;11142;49.930;8.606;2023-11-19T05:05:15;99440.00;;;11.12;100.00
21956;BME280;11142;49.930;8.606;2023-11-19T05:07:44;99429.34;;;11.04;100.00
21956;BME280;11142;49.930;8.606;2023-11-19T05:10:12;99423.22;;;10.94;100.00
21956;BME280;11142;49.930;8.606;2023-11-19T05:12:41;99416.13;;;10.96;100.00
21956;BME280;11142;49.930;8.606;2023-11-19T05:15:10;99429.25;;;11.05;100.00
21956;BME280;11142;49.930;8.606;2023-11-19T05:17:39;99423.34;;;11.14;100.00
21956;BME280;11142;49.930;8.606;2023-11-19T05:20:09;99422.19;;;11.18;100.00
21956;BME280;11142;49.930;8.606;2023-11-19T05:22:42;99411.28;;;11.13;100.00
21956;BME280;11142;49.930;8.606;2023-11-19T05:25:10;99416.03;;;11.08;100.00
21956;BME280;11142;49.930;8.606;2023-11-19T05:27:38;99407.19;;;11.22;100.00
21956;BME280;11142;49.930;8.606;2023-11-19T05:30:07;99413.66;;;11.28;100.00
21956;BME280;11142;49.930;8.606;2023-11-19T05:32:38;99436.44;;;11.24;100.00
21956;BME280;11142;49.930;8.606;2023-11-19T05:35:07;99430.78;;;11.30;100.00
21956;BME280;11142;49.930;8.606;2023-11-19T05:37:37;99424.75;;;11.30;100.00
21956;BME280;11142;49.930;8.606;2023-11-19T05:40:06;99429.59;;;11.45;100.00
21956;BME280;11142;49.930;8.606;2023-11-19T05:42:41;99416.38;;;11.48;100.00
21956;BME280;11142;49.930;8.606;2023-11-19T05:45:11;99429.59;;;11.45;100.00
21956;BME280;11142;49.930;8.606;2023-11-19T05:47:40;99423.91;;;11.51;100.00
21956;BME280;11142;49.930;8.606;2023-11-19T05:50:09;99426.78;;;11.70;100.00
21956;BME280;11142;49.930;8.606;2023-11-19T05:52:38;99426.53;;;11.62;100.00
21956;BME280;11142;49.930;8.606;2023-11-19T05:55:07;99424.06;;;11.72;100.00
21956;BME280;11142;49.930;8.606;2023-11-19T05:57:37;99439.28;;;11.77;100.00
21956;BME280;11142;49.930;8.606;2023-11-19T06:00:10;99444.63;;;11.75;100.00
21956;BME280;11142;49.930;8.606;2023-11-19T06:02:39;99444.38;;;11.78;100.00
21956;BME280;11142;49.930;8.606;2023-11-19T06:05:08;99438.97;;;11.70;100.00
21956;BME280;11142;49.930;8.606;2023-11-19T06:07:36;99436.91;;;11.73;100.00
21956;BME280;11142;49.930;8.606;2023-11-19T06:10:07;99444.84;;;11.72;100.00
21956;BME280;11142;49.930;8.606;2023-11-19T06:12:37;99445.69;;;11.73;100.00
21956;BME280;11142;49.930;8.606;2023-11-19T06:15:08;99442.81;;;11.64;100.00
21956;BME280;11142;49.930;8.606;2023-11-19T06:17:36;99442.47;;;11.58;100.00
21956;BME280;11142;49.930;8.606;2023-11-19T06:20:05;99441.88;;;11.65;100.00
21956;BME280;11142;49.930;8.606;2023-11-19T06:22:34;99433.03;;;11.57;100.00
21956;BME280;11142;49.930;8.606;2023-11-19T06:25:03;99428.97;;;11.64;100.00
21956;BME280;11142;49.930;8.606;2023-11-19T06:27:36;99433.38;;;11.52;100.00
21956;BME280;11142;49.930;8.606;2023-11-19T06:30:05;99425.72;;;11.51;100.00
21956;BME280;11142;49.930;8.606;2023-11-19T06:32:33;99434.31;;;11.51;100.00
21956;BME280;11142;49.930;8.606;2023-11-19T06:35:01;99425.22;;;11.68;100.00
21956;BME280;11142;49.930;8.606;2023-11-19T06:37:31;99431.47;;;11.65;100.00
21956;BME280;11142;49.930;8.606;2023-11-19T06:39:59;99428.88;;;11.65;100.00
21956;BME280;11142;49.930;8.606;2023-11-19T06:42:28;99423.56;;;11.78;100.00
21956;BME280;11142;49.930;8.606;2023-11-19T06:44:57;99427.34;;;11.85;100.00
21956;BME280;11142;49.930;8.606;2023-11-19T06:47:26;99430.06;;;11.84;100.00
21956;BME280;11142;49.930;8.606;2023-11-19T06:49:55;99441.28;;;11.84;100.00
21956;BME280;11142;49.930;8.606;2023-11-19T06:52:23;99443.66;;;11.87;100.00
21956;BME280;11142;49.930;8.606;2023-11-19T06:54:51;99448.34;;;11.93;100.00
21956;BME280;11142;49.930;8.606;2023-11-19T06:57:32;99444.41;;;12.10;100.00
21956;BME280;11142;49.930;8.606;2023-11-19T07:00:02;99456.44;;;12.22;100.00
21956;BME280;11142;49.930;8.606;2023-11-19T07:02:32;99455.59;;;12.33;100.00
21956;BME280;11142;49.930;8.606;2023-11-19T07:05:01;99463.22;;;12.45;100.00
21956;BME280;11142;49.930;8.606;2023-11-19T07:07:31;99470.72;;;12.59;100.00
21956;BME280;11142;49.930;8.606;2023-11-19T07:10:00;99484.47;;;12.61;100.00
21956;BME280;11142;49.930;8.606;2023-11-19T07:12:29;99479.59;;;12.25;100.00
21956;BME280;11142;49.930;8.606;2023-11-19T07:14:57;99475.00;;;12.29;100.00
21956;BME280;11142;49.930;8.606;2023-11-19T07:17:26;99474.50;;;12.35;100.00
21956;BME280;11142;49.930;8.606;2023-11-19T07:19:54;99466.75;;;12.12;100.00
21956;BME280;11142;49.930;8.606;2023-11-19T07:22:26;99462.19;;;12.05;100.00
21956;BME280;11142;49.930;8.606;2023-11-19T07:24:56;99456.19;;;12.25;100.00
21956;BME280;11142;49.930;8.606;2023-11-19T07:27:25;99458.78;;;12.25;100.00
21956;BME280;11142;49.930;8.606;2023-11-19T07:29:54;99454.13;;;12.08;100.00
21956;BME280;11142;49.930;8.606;2023-11-19T07:32:22;99456.50;;;12.00;100.00
21956;BME280;11142;49.930;8.606;2023-11-19T07:34:52;99454.59;;;12.02;100.00
21956;BME280;11142;49.930;8.606;2023-11-19T07:37:20;99441.47;;;12.03;100.00
21956;BME280;11142;49.930;8.606;2023-11-19T07:39:49;99442.50;;;12.12;100.00
21956;BME280;11142;49.930;8.606;2023-11-19T07:42:17;99442.16;;;12.16;100.00
21956;BME280;11142;49.930;8.606;2023-11-19T07:44:45;99439.91;;;12.23;100.00
21956;BME280;11142;49.930;8.606;2023-11-19T07:47:13;99443.97;;;12.05;100.00
21956;BME280;11142;49.930;8.606;2023-11-19T07:49:42;99447.03;;;11.99;100.00
21956;BME280;11142;49.930;8.606;2023-11-19T07:52:12;99442.41;;;12.02;100.00
21956;BME280;11142;49.930;8.606;2023-11-19T07:54:43;99430.69;;;12.19;100.00
21956;BME280;11142;49.930;8.606;2023-11-19T07:57:11;99431.25;;;12.22;100.00
21956;BME280;11142;49.930;8.606;2023-11-19T07:59:39;99425.81;;;12.25;100.00
21956;BME280;11142;49.930;8.606;2023-11-19T08:02:07;99441.25;;;12.38;100.00
21956;BME280;11142;49.930;8.606;2023-11-19T08:04:36;99444.19;;;12.45;100.00
21956;BME280;11142;49.930;8.606;2023-11-19T08:07:06;99445.44;;;12.50;100.00
21956;BME280;11142;49.930;8.606;2023-11-19T08:09:36;99443.06;;;12.58;100.00
21956;BME280;11142;49.930;8.606;2023-11-19T08:12:05;99452.72;;;12.67;100.00
21956;BME280;11142;49.930;8.606;2023-11-19T08:14:35;99449.28;;;12.67;100.00
21956;BME280;11142;49.930;8.606;2023-11-19T08:17:03;99456.78;;;12.60;100.00
21956;BME280;11142;49.930;8.606;2023-11-19T08:19:32;99454.69;;;12.75;100.00
21956;BME280;11142;49.930;8.606;2023-11-19T08:22:00;99453.28;;;12.92;100.00
21956;BME280;11142;49.930;8.606;2023-11-19T08:24:29;99451.56;;;13.02;100.00
21956;BME280;11142;49.930;8.606;2023-11-19T08:26:59;99458.38;;;13.14;100.00
21956;BME280;11142;49.930;8.606;2023-11-19T08:29:35;99473.66;;;13.07;100.00
21956;BME280;11142;49.930;8.606;2023-11-19T08:32:05;99470.84;;;13.31;100.00
21956;BME280;11142;49.930;8.606;2023-11-19T08:34:34;99481.72;;;13.76;100.00
21956;BME280;11142;49.930;8.606;2023-11-19T08:37:02;99494.00;;;13.95;100.00
21956;BME280;11142;49.930;8.606;2023-11-19T08:39:31;99519.63;;;14.29;100.00
21956;BME280;11142;49.930;8.606;2023-11-19T08:42:00;99536.69;;;14.43;100.00
21956;BME280;11142;49.930;8.606;2023-11-19T08:44:29;99546.66;;;14.19;100.00
21956;BME280;11142;49.930;8.606;2023-11-19T08:46:57;99549.41;;;14.27;100.00
21956;BME280;11142;49.930;8.606;2023-11-19T08:49:26;99549.81;;;14.22;100.00
21956;BME280;11142;49.930;8.606;2023-11-19T08:51:53;99550.75;;;14.12;100.00
21956;BME280;11142;49.930;8.606;2023-11-19T08:54:22;99530.34;;;13.87;100.00
21956;BME280;11142;49.930;8.606;2023-11-19T08:56:51;99539.44;;;14.02;100.00
21956;BME280;11142;49.930;8.606;2023-11-19T08:59:23;99540.78;;;13.87;100.00
21956;BME280;11142;49.930;8.606;2023-11-19T09:01:52;99544.78;;;13.91;100.00
21956;BME280;11142;49.930;8.606;2023-11-19T09:04:20;99547.34;;;13.81;100.00
21956;BME280;11142;49.930;8.606;2023-11-19T09:06:49;99548.97;;;13.72;100.00
21956;BME280;11142;49.930;8.606;2023-11-19T09:09:17;99541.50;;;13.89;100.00
21956;BME280;11142;49.930;8.606;2023-11-19T09:11:46;99548.53;;;13.98;100.00
21956;BME280;11142;49.930;8.606;2023-11-19T09:14:14;99557.63;;;14.13;100.00
21956;BME280;11142;49.930;8.606;2023-11-19T09:16:47;99556.94;;;14.11;100.00
21956;BME280;11142;49.930;8.606;2023-11-19T09:19:15;99562.03;;;14.12;100.00
21956;BME280;11142;49.930;8.606;2023-11-19T09:21:44;99550.38;;;14.26;100.00
21956;BME280;11142;49.930;8.606;2023-11-19T09:24:12;99572.75;;;15.35;100.00
21956;BME280;11142;49.930;8.606;2023-11-19T09:26:42;99639.00;;;16.66;100.00
21956;BME280;11142;49.930;8.606;2023-11-19T09:29:13;99689.94;;;17.26;100.00
21956;BME280;11142;49.930;8.606;2023-11-19T09:31:43;99703.53;;;17.57;100.00
21956;BME280;11142;49.930;8.606;2023-11-19T09:34:13;99717.81;;;17.97;100.00
21956;BME280;11142;49.930;8.606;2023-11-19T09:36:42;99731.69;;;17.90;100.00
21956;BME280;11142;49.930;8.606;2023-11-19T09:39:12;99708.50;;;16.23;100.00
21956;BME280;11142;49.930;8.606;2023-11-19T09:41:44;99680.78;;;15.55;100.00
21956;BME280;11142;49.930;8.606;2023-11-19T09:44:13;99684.72;;;16.44;100.00
21956;BME280;11142;49.930;8.606;2023-11-19T09:46:45;99698.59;;;16.54;100.00
21956;BME280;11142;49.930;8.606;2023-11-19T09:49:20;99708.25;;;16.63;100.00
21956;BME280;11142;49.930;8.606;2023-11-19T09:51:53;99716.16;;;16.81;100.00
21956;BME280;11142;49.930;8.606;2023-11-19T09:54:25;99721.34;;;16.90;100.00
21956;BME280;11142;49.930;8.606;2023-11-19T09:56:54;99723.75;;;17.46;100.00
21956;BME280;11142;49.930;8.606;2023-11-19T09:59:33;99735.22;;;17.63;100.00
21956;BME280;11142;49.930;8.606;2023-11-19T10:02:03;99723.38;;;16.96;100.00
21956;BME280;11142;49.930;8.606;2023-11-19T10:04:35;99710.66;;;15.91;100.00
21956;BME280;11142;49.930;8.606;2023-11-19T10:07:04;99679.53;;;15.40;100.00
21956;BME280;11142;49.930;8.606;2023-11-19T10:09:33;99693.91;;;17.12;100.00
21956;BME280;11142;49.930;8.606;2023-11-19T10:12:11;99750.41;;;17.69;100.00
21956;BME280;11142;49.930;8.606;2023-11-19T10:14:44;99722.06;;;16.00;100.00
21956;BME280;11142;49.930;8.606;2023-11-19T10:17:13;99698.09;;;15.18;100.00
21956;BME280;11142;49.930;8.606;2023-11-19T10:19:43;99687.06;;;15.05;100.00
21956;BME280;11142;49.930;8.606;2023-11-19T10:22:11;99667.50;;;14.80;100.00
21956;BME280;11142;49.930;8.606;2023-11-19T10:24:41;99657.94;;;14.60;100.00
21956;BME280;11142;49.930;8.606;2023-11-19T10:27:15;99643.22;;;14.49;100.00
21956;BME280;11142;49.930;8.606;2023-11-19T10:29:45;99645.88;;;14.68;100.00
21956;BME280;11142;49.930;8.606;2023-11-19T10:32:13;99665.28;;;14.75;100.00
21956;BME280;11142;49.930;8.606;2023-11-19T10:35:04;99667.72;;;14.58;100.00
21956;BME280;11142;49.930;8.606;2023-11-19T10:37:33;99674.47;;;14.70;100.00
21956;BME280;11142;49.930;8.606;2023-11-19T10:40:05;99680.38;;;15.31;100.00
21956;BME280;11142;49.930;8.606;2023-11-19T10:42:37;99700.75;;;15.56;100.00
21956;BME280;11142;49.930;8.606;2023-11-19T10:45:21;99696.38;;;15.57;100.00
21956;BME280;11142;49.930;8.606;2023-11-19T10:47:51;99689.16;;;15.20;100.00
21956;BME280;11142;49.930;8.606;2023-11-19T10:50:22;99686.94;;;15.16;100.00
21956;BME280;11142;49.930;8.606;2023-11-19T10:52:54;99682.44;;;15.27;100.00
21956;BME280;11142;49.930;8.606;2023-11-19T10:55:27;99689.16;;;15.97;100.00
21956;BME280;11142;49.930;8.606;2023-11-19T10:58:01;99708.44;;;17.24;100.00
21956;BME280;11142;49.930;8.606;2023-11-19T11:00:38;99714.88;;;18.00;100.00
21956;BME280;11142;49.930;8.606;2023-11-19T11:03:11;99732.47;;;18.34;100.00
21956;BME280;11142;49.930;8.606;2023-11-19T11:05:42;99737.84;;;18.50;100.00
21956;BME280;11142;49.930;8.606;2023-11-19T11:08:11;99742.31;;;18.83;100.00
21956;BME280;11142;49.930;8.606;2023-11-19T11:10:43;99748.78;;;19.47;100.00
21956;BME280;11142;49.930;8.606;2023-11-19T11:13:15;99746.41;;;19.36;100.00
21956;BME280;11142;49.930;8.606;2023-11-19T11:15:44;99746.16;;;18.71;100.00
21956;BME280;11142;49.930;8.606;2023-11-19T11:18:14;99732.44;;;18.26;100.00
21956;BME280;11142;49.930;8.606;2023-11-19T11:20:44;99721.72;;;18.19;100.00
21956;BME280;11142;49.930;8.606;2023-11-19T11:26:51;99736.28;;;18.99;100.00
21956;BME280;11142;49.930;8.606;2023-11-19T11:29:26;99733.22;;;18.78;100.00
21956;BME280;11142;49.930;8.606;2023-11-19T11:32:10;99730.09;;;18.74;100.00
21956;BME280;11142;49.930;8.606;2023-11-19T11:34:57;99736.66;;;19.28;100.00
21956;BME280;11142;49.930;8.606;2023-11-19T11:37:33;99742.59;;;21.83;100.00
21956;BME280;11142;49.930;8.606;2023-11-19T11:40:20;99756.84;;;23.78;91.00
21956;BME280;11142;49.930;8.606;2023-11-19T11:42:56;99749.06;;;22.03;91.93
21956;BME280;11142;49.930;8.606;2023-11-19T11:45:38;99742.47;;;20.61;99.99
21956;BME280;11142;49.930;8.606;2023-11-19T11:48:14;99745.97;;;19.73;100.00
21956;BME280;11142;49.930;8.606;2023-11-19T11:50:49;99716.09;;;18.40;100.00
21956;BME280;11142;49.930;8.606;2023-11-19T11:53:21;99704.13;;;16.61;100.00
21956;BME280;11142;49.930;8.606;2023-11-19T11:55:55;99696.19;;;15.77;100.00
21956;BME280;11142;49.930;8.606;2023-11-19T11:58:32;99676.47;;;15.16;100.00
21956;BME280;11142;49.930;8.606;2023-11-19T12:01:04;99671.78;;;15.10;100.00
21956;BME280;11142;49.930;8.606;2023-11-19T12:03:37;99646.38;;;15.12;100.00
21956;BME280;11142;49.930;8.606;2023-11-19T12:06:07;99666.44;;;15.02;100.00
21956;BME280;11142;49.930;8.606;2023-11-19T12:08:38;99661.06;;;14.84;100.00
21956;BME280;11142;49.930;8.606;2023-11-19T12:11:10;99664.53;;;15.42;100.00
21956;BME280;11142;49.930;8.606;2023-11-19T12:13:47;99679.56;;;15.69;100.00
21956;BME280;11142;49.930;8.606;2023-11-19T12:16:16;99681.19;;;15.41;100.00
21956;BME280;11142;49.930;8.606;2023-11-19T12:18:45;99710.50;;;16.48;100.00
21956;BME280;11142;49.930;8.606;2023-11-19T12:21:27;99693.28;;;15.90;100.00
21956;BME280;11142;49.930;8.606;2023-11-19T12:23:59;99698.28;;;16.30;100.00
21956;BME280;11142;49.930;8.606;2023-11-19T12:26:36;99708.69;;;16.03;100.00
21956;BME280;11142;49.930;8.606;2023-11-19T12:29:06;99706.41;;;16.27;100.00
21956;BME280;11142;49.930;8.606;2023-11-19T12:31:36;99707.44;;;18.22;95.41
21956;BME280;11142;49.930;8.606;2023-11-19T12:34:10;99704.28;;;19.28;87.59
21956;BME280;11142;49.930;8.606;2023-11-19T12:36:40;99700.03;;;20.32;80.32
21956;BME280;11142;49.930;8.606;2023-11-19T12:39:11;99695.69;;;19.09;83.11
21956;BME280;11142;49.930;8.606;2023-11-19T12:41:52;99699.25;;;19.42;83.47
21956;BME280;11142;49.930;8.606;2023-11-19T12:44:21;99709.09;;;20.05;81.04
21956;BME280;11142;49.930;8.606;2023-11-19T12:47:02;99696.22;;;20.18;76.88
21956;BME280;11142;49.930;8.606;2023-11-19T12:49:31;99684.63;;;19.56;75.61
21956;BME280;11142;49.930;8.606;2023-11-19T12:51:59;99677.59;;;18.98;75.58
21956;BME280;11142;49.930;8.606;2023-11-19T12:54:36;99695.47;;;19.53;77.92
21956;BME280;11142;49.930;8.606;2023-11-19T12:57:05;99688.53;;;19.92;75.78
21956;BME280;11142;49.930;8.606;2023-11-19T12:59:33;99676.88;;;19.54;69.94
21956;BME280;11142;49.930;8.606;2023-11-19T13:02:02;99682.72;;;19.08;70.55
21956;BME280;11142;49.930;8.606;2023-11-19T13:04:33;99685.69;;;18.63;76.90
21956;BME280;11142;49.930;8.606;2023-11-19T13:07:02;99671.50;;;18.90;73.91
21956;BME280;11142;49.930;8.606;2023-11-19T13:09:32;99667.94;;;18.57;74.11
21956;BME280;11142;49.930;8.606;2023-11-19T13:12:12;99673.59;;;18.44;76.37